Time;durP1;ratioP1;P1;durP2;ratioP2;P2;SDS_P1;SDS_P2;PMS_P1;PMS_P2;Temp;Humidity;BMP_temperature;BMP_pressure;BME280_temperature;BME280_humidity;BME280_pressure;Samples;Min_cycle;Max_cycle;Signal;HPM_P1;HPM_P2
2023/01/14 00:01:01;;;;;;;14.77;2.10;;;;;;;;;;5053320;28;20053;-72
2023/01/14 00:03:28;;;;;;;14.07;2.00;;;;;;;;;;5052766;28;20052;-72
2023/01/14 00:05:55;;;;;;;21.25;3.80;;;;;;;;;;5053066;28;20090;-72
2023/01/14 00:08:21;;;;;;;16.25;3.00;;;;;;;;;;5052698;28;20106;-72
2023/01/14 00:10:47;;;;;;;15.38;3.03;;;;;;;;;;5053490;28;20531;-72
2023/01/14 00:13:13;;;;;;;19.13;2.25;;;;;;;;;;5052633;28;20044;-72
2023/01/14 00:15:39;;;;;;;11.20;2.28;;;;;;;;;;5036511;28;20052;-73
2023/01/14 00:18:05;;;;;;;11.95;2.10;;;;;;;;;;5052754;28;20052;-72
2023/01/14 00:20:31;;;;;;;16.02;2.58;;;;;;;;;;5052677;28;20041;-72
2023/01/14 00:22:57;;;;;;;14.90;2.55;;;;;;;;;;5036553;28;20073;-72
2023/01/14 00:25:23;;;;;;;16.27;3.25;;;;;;;;;;5052895;28;20389;-72
2023/01/14 00:27:51;;;;;;;14.65;2.30;;;;;;;;;;5051785;28;20406;-72
2023/01/14 00:30:18;;;;;;;14.05;2.33;;;;;;;;;;5052422;28;20041;-73
2023/01/14 00:32:44;;;;;;;13.27;1.77;;;;;;;;;;5036759;28;20418;-73
2023/01/14 00:35:10;;;;;;;11.25;2.05;;;;;;;;;;5052834;28;20083;-72
2023/01/14 00:37:36;;;;;;;14.38;2.45;;;;;;;;;;5053771;28;20135;-72
2023/01/14 00:40:02;;;;;;;12.10;2.30;;;;;;;;;;5052997;28;20393;-72
2023/01/14 00:42:28;;;;;;;14.52;2.00;;;;;;;;;;5052296;28;20161;-72
2023/01/14 00:44:55;;;;;;;11.82;1.52;;;;;;;;;;5052454;28;20060;-71
2023/01/14 00:47:21;;;;;;;11.23;2.05;;;;;;;;;;5051889;28;20061;-72
2023/01/14 00:49:47;;;;;;;16.98;2.60;;;;;;;;;;5052495;28;20051;-72
2023/01/14 00:52:13;;;;;;;11.95;1.60;;;;;;;;;;5052348;28;20095;-73
2023/01/14 00:54:39;;;;;;;17.30;2.35;;;;;;;;;;5051932;28;20060;-72
2023/01/14 00:57:05;;;;;;;10.45;1.88;;;;;;;;;;5052452;28;20091;-72
2023/01/14 00:59:31;;;;;;;18.13;2.40;;;;;;;;;;5051775;28;20072;-72
2023/01/14 01:01:57;;;;;;;16.05;2.65;;;;;;;;;;5052208;28;20049;-72
2023/01/14 01:04:24;;;;;;;16.45;2.15;;;;;;;;;;5051445;28;20049;-73
2023/01/14 01:06:50;;;;;;;15.60;2.45;;;;;;;;;;5052034;28;20053;-72
2023/01/14 01:09:16;;;;;;;16.52;2.28;;;;;;;;;;5053634;28;20037;-72
2023/01/14 01:11:42;;;;;;;24.10;3.55;;;;;;;;;;5018927;28;20090;-72
2023/01/14 01:14:09;;;;;;;16.42;2.13;;;;;;;;;;5052104;28;20124;-72
2023/01/14 01:16:35;;;;;;;18.75;2.60;;;;;;;;;;5051450;28;20425;-72
2023/01/14 01:19:01;;;;;;;13.65;2.10;;;;;;;;;;5052173;28;20060;-72
2023/01/14 01:21:27;;;;;;;13.10;2.65;;;;;;;;;;5051668;28;20048;-72
2023/01/14 01:23:54;;;;;;;14.93;1.83;;;;;;;;;;5035080;28;20120;-72
2023/01/14 01:26:21;;;;;;;20.02;2.55;;;;;;;;;;5051764;28;20126;-72
2023/01/14 01:28:48;;;;;;;20.50;2.17;;;;;;;;;;5051733;28;20040;-72
2023/01/14 01:31:15;;;;;;;20.60;2.85;;;;;;;;;;5035748;28;20040;-72
2023/01/14 01:33:41;;;;;;;14.82;2.20;;;;;;;;;;5051111;28;20571;-72
2023/01/14 01:36:11;;;;;;;17.15;2.50;;;;;;;;;;5051653;28;20045;-72
2023/01/14 01:38:37;;;;;;;19.13;3.22;;;;;;;;;;5051253;28;20080;-72
2023/01/14 01:41:03;;;;;;;20.83;2.80;;;;;;;;;;5051687;28;20045;-72
2023/01/14 01:43:30;;;;;;;20.58;2.80;;;;;;;;;;5034461;28;20041;-73
2023/01/14 01:45:57;;;;;;;20.70;2.70;;;;;;;;;;5051425;28;20037;-72
2023/01/14 01:48:26;;;;;;;20.77;3.03;;;;;;;;;;5051328;28;20083;-72
2023/01/14 01:50:56;;;;;;;15.10;2.20;;;;;;;;;;5052502;28;20032;-72
2023/01/14 01:53:23;;;;;;;15.50;2.30;;;;;;;;;;5051561;28;20056;-72
2023/01/14 01:55:52;;;;;;;16.95;2.30;;;;;;;;;;5051473;28;20495;-72
2023/01/14 01:58:20;;;;;;;18.15;2.08;;;;;;;;;;5051551;28;20528;-72
2023/01/14 02:00:46;;;;;;;20.30;2.33;;;;;;;;;;5051050;28;20494;-72
2023/01/14 02:03:15;;;;;;;19.48;2.17;;;;;;;;;;5034757;28;20045;-72
2023/01/14 02:05:41;;;;;;;18.58;2.47;;;;;;;;;;5050385;28;20053;-72
2023/01/14 02:08:07;;;;;;;16.10;2.13;;;;;;;;;;5051083;28;20076;-72
2023/01/14 02:10:45;;;;;;;20.52;2.38;;;;;;;;;;5034003;28;20045;-72
2023/01/14 02:13:20;;;;;;;14.88;2.20;;;;;;;;;;5051083;28;20037;-72
2023/01/14 02:15:55;;;;;;;15.90;2.90;;;;;;;;;;5050638;28;20080;-72
2023/01/14 02:18:30;;;;;;;21.00;2.63;;;;;;;;;;5051321;28;20044;-72
2023/01/14 02:21:04;;;;;;;16.40;2.25;;;;;;;;;;5050840;28;20055;-72
2023/01/14 02:23:57;;;;;;;15.18;2.65;;;;;;;;;;5033999;28;20486;-72
2023/01/14 02:26:38;;;;;;;22.13;2.30;;;;;;;;;;5050880;28;20194;-72
2023/01/14 02:29:23;;;;;;;15.85;2.22;;;;;;;;;;5035860;28;20378;-72
2023/01/14 02:31:49;;;;;;;19.02;2.25;;;;;;;;;;5047066;28;20214;-72
2023/01/14 02:34:21;;;;;;;21.88;2.53;;;;;;;;;;5050716;28;20056;-72
2023/01/14 02:37:20;;;;;;;28.40;3.10;;;;;;;;;;5034304;28;20045;-72
2023/01/14 02:40:01;;;;;;;18.08;2.50;;;;;;;;;;5021451;28;21022;-72
2023/01/14 02:45:38;;;;;;;20.45;2.10;;;;;;;;;;5050617;28;20083;-72
2023/01/14 02:48:05;;;;;;;19.27;2.47;;;;;;;;;;5050603;28;20037;-72
2023/01/14 02:50:32;;;;;;;16.88;2.03;;;;;;;;;;5050788;28;20044;-72
2023/01/14 02:52:58;;;;;;;18.15;2.72;;;;;;;;;;5054853;28;20540;-72
2023/01/14 02:55:34;;;;;;;16.98;2.25;;;;;;;;;;5054557;28;20037;-72
2023/01/14 02:58:00;;;;;;;23.25;2.80;;;;;;;;;;5054500;28;20075;-72
2023/01/14 03:00:35;;;;;;;22.65;2.80;;;;;;;;;;5054449;28;20044;-72
2023/01/14 03:03:04;;;;;;;14.25;2.47;;;;;;;;;;5026451;28;20076;-70
2023/01/14 03:05:42;;;;;;;21.65;2.95;;;;;;;;;;5053590;28;20055;-70
2023/01/14 03:08:14;;;;;;;19.70;2.30;;;;;;;;;;5037809;28;20099;-71
2023/01/14 03:10:42;;;;;;;15.60;2.35;;;;;;;;;;5054090;28;20059;-72
2023/01/14 03:13:14;;;;;;;18.80;2.65;;;;;;;;;;5054047;28;20048;-72
2023/01/14 03:16:00;;;;;;;22.25;2.58;;;;;;;;;;5053859;28;20045;-72
2023/01/14 03:18:45;;;;;;;24.53;2.60;;;;;;;;;;5054084;28;20048;-72
2023/01/14 03:21:14;;;;;;;23.60;3.05;;;;;;;;;;5037329;28;20283;-72
2023/01/14 03:23:46;;;;;;;17.95;2.72;;;;;;;;;;5053553;28;20045;-72
2023/01/14 03:26:12;;;;;;;18.98;2.67;;;;;;;;;;5054252;28;20389;-72
2023/01/14 03:28:40;;;;;;;20.42;2.97;;;;;;;;;;5036988;28;20119;-72
2023/01/14 03:31:13;;;;;;;23.45;2.65;;;;;;;;;;5037456;28;20041;-72
2023/01/14 03:33:42;;;;;;;21.17;3.22;;;;;;;;;;5053458;28;20088;-72
2023/01/14 03:36:08;;;;;;;23.92;3.20;;;;;;;;;;5044539;28;20041;-71
2023/01/14 03:38:37;;;;;;;22.98;2.95;;;;;;;;;;5049964;28;20049;-71
2023/01/14 03:41:05;;;;;;;17.63;2.78;;;;;;;;;;5037173;28;20044;-71
2023/01/14 03:43:40;;;;;;;21.92;2.78;;;;;;;;;;5054033;28;20118;-71
2023/01/14 03:46:06;;;;;;;17.65;2.55;;;;;;;;;;5024435;28;20055;-72
2023/01/14 03:48:32;;;;;;;18.58;2.25;;;;;;;;;;5036956;28;20052;-72
2023/01/14 03:51:04;;;;;;;14.88;2.53;;;;;;;;;;5054339;28;20037;-72
2023/01/14 03:53:49;;;;;;;18.55;2.70;;;;;;;;;;5053728;28;20486;-71
2023/01/14 03:56:15;;;;;;;18.75;2.85;;;;;;;;;;5053518;28;20037;-71
2023/01/14 03:58:41;;;;;;;22.48;2.72;;;;;;;;;;5053061;28;20049;-72
2023/01/14 04:01:09;;;;;;;19.05;2.97;;;;;;;;;;5053241;28;20490;-72
2023/01/14 04:03:36;;;;;;;18.58;2.13;;;;;;;;;;5053331;28;20045;-72
2023/01/14 04:06:02;;;;;;;15.30;3.08;;;;;;;;;;5052484;28;20049;-71
2023/01/14 04:08:28;;;;;;;17.70;2.38;;;;;;;;;;5053116;28;20138;-72
2023/01/14 04:10:54;;;;;;;16.92;2.28;;;;;;;;;;5052973;28;20126;-72
2023/01/14 04:16:05;;;;;;;18.73;2.15;;;;;;;;;;5053043;28;20048;-72
2023/01/14 04:18:31;;;;;;;15.25;2.67;;;;;;;;;;5036529;28;20051;-71
2023/01/14 04:20:57;;;;;;;18.98;2.97;;;;;;;;;;5052651;28;20075;-71
2023/01/14 04:23:23;;;;;;;17.55;2.75;;;;;;;;;;5035988;28;20044;-72
2023/01/14 04:25:55;;;;;;;18.10;2.17;;;;;;;;;;5053699;28;20079;-72
2023/01/14 04:28:21;;;;;;;18.10;2.30;;;;;;;;;;5052692;28;20045;-72
2023/01/14 04:30:48;;;;;;;22.92;2.50;;;;;;;;;;5052460;28;20045;-72
2023/01/14 04:33:14;;;;;;;17.00;3.00;;;;;;;;;;5053858;28;20079;-72
2023/01/14 04:35:40;;;;;;;20.00;2.30;;;;;;;;;;5053010;28;20045;-71
2023/01/14 04:38:06;;;;;;;16.25;2.85;;;;;;;;;;5035234;28;20064;-72
2023/01/14 04:40:32;;;;;;;24.02;2.72;;;;;;;;;;5069482;28;20041;-72
2023/01/14 04:42:58;;;;;;;19.25;2.30;;;;;;;;;;5052569;28;20053;-72
2023/01/14 04:45:24;;;;;;;18.15;2.38;;;;;;;;;;5036006;28;20074;-71
2023/01/14 04:47:50;;;;;;;20.92;2.50;;;;;;;;;;5052109;28;20119;-72
2023/01/14 04:50:32;;;;;;;25.35;3.03;;;;;;;;;;5052892;28;20577;-72
2023/01/14 04:53:08;;;;;;;14.52;2.28;;;;;;;;;;5054123;28;20041;-71
2023/01/14 04:55:38;;;;;;;17.92;2.58;;;;;;;;;;5085892;28;20059;-72
2023/01/14 04:58:05;;;;;;;18.90;2.60;;;;;;;;;;5035898;28;20037;-72
2023/01/14 05:00:31;;;;;;;18.02;2.33;;;;;;;;;;5052388;28;20128;-72
2023/01/14 05:02:57;;;;;;;21.33;2.97;;;;;;;;;;5043845;28;20418;-72
2023/01/14 05:05:24;;;;;;;21.75;3.28;;;;;;;;;;5051853;28;20057;-72
2023/01/14 05:07:50;;;;;;;15.88;2.50;;;;;;;;;;5051483;28;20094;-72
2023/01/14 05:10:16;;;;;;;18.52;2.58;;;;;;;;;;5052317;28;20044;-72
2023/01/14 05:12:55;;;;;;;15.68;2.80;;;;;;;;;;5075664;28;20044;-72
2023/01/14 05:15:29;;;;;;;22.13;3.03;;;;;;;;;;5071922;28;20048;-72
2023/01/14 05:17:56;;;;;;;24.33;3.22;;;;;;;;;;5055090;28;20044;-72
2023/01/14 05:20:26;;;;;;;23.20;3.30;;;;;;;;;;5071939;28;20106;-72
2023/01/14 05:22:52;;;;;;;23.83;3.60;;;;;;;;;;5071524;28;20083;-72
2023/01/14 05:25:18;;;;;;;25.38;3.75;;;;;;;;;;5055293;28;20119;-72
2023/01/14 05:27:44;;;;;;;23.67;3.08;;;;;;;;;;5071689;28;20045;-72
2023/01/14 05:30:11;;;;;;;21.15;3.67;;;;;;;;;;5071345;28;20032;-72
2023/01/14 05:32:37;;;;;;;23.30;3.60;;;;;;;;;;5071814;28;20051;-72
2023/01/14 05:35:03;;;;;;;23.88;3.28;;;;;;;;;;5068945;28;20045;-72
2023/01/14 05:37:29;;;;;;;25.42;3.55;;;;;;;;;;5071526;28;20047;-72
2023/01/14 05:39:55;;;;;;;21.90;3.33;;;;;;;;;;5071058;28;20048;-72
2023/01/14 05:47:50;;;;;;;25.60;3.97;;;;;;;;;;5037606;28;20437;-72
2023/01/14 05:50:16;;;;;;;20.10;3.65;;;;;;;;;;5035027;28;20451;-70
2023/01/14 05:52:42;;;;;;;27.33;4.05;;;;;;;;;;5052267;28;20188;-70
2023/01/14 05:55:08;;;;;;;26.17;4.20;;;;;;;;;;5034202;28;20044;-70
2023/01/14 05:57:35;;;;;;;22.92;4.68;;;;;;;;;;5051398;28;20041;-70
2023/01/14 06:00:04;;;;;;;21.25;4.20;;;;;;;;;;5051091;28;20540;-70
2023/01/14 06:08:06;;;;;;;32.35;4.90;;;;;;;;;;5050543;28;20040;-72
2023/01/14 06:10:36;;;;;;;26.75;4.80;;;;;;;;;;5050927;28;20163;-72
2023/01/14 06:13:10;;;;;;;25.30;4.85;;;;;;;;;;5050427;28;20045;-72
2023/01/14 06:15:46;;;;;;;29.88;6.20;;;;;;;;;;5051240;28;20041;-73
2023/01/14 06:18:21;;;;;;;26.58;4.70;;;;;;;;;;5034701;28;20052;-72
2023/01/14 06:20:47;;;;;;;33.70;5.90;;;;;;;;;;5050970;28;20049;-74
2023/01/14 06:23:13;;;;;;;25.17;5.40;;;;;;;;;;5083807;28;20036;-70
2023/01/14 06:25:43;;;;;;;29.17;5.00;;;;;;;;;;5050820;28;20044;-70
2023/01/14 06:28:13;;;;;;;26.02;5.93;;;;;;;;;;5050275;28;20041;-71
2023/01/14 06:30:39;;;;;;;27.00;5.90;;;;;;;;;;5051092;28;20103;-70
2023/01/14 06:33:06;;;;;;;29.48;5.70;;;;;;;;;;5033609;28;20110;-71
2023/01/14 06:35:33;;;;;;;38.42;8.40;;;;;;;;;;5050701;28;20049;-71
2023/01/14 06:38:02;;;;;;;35.55;6.63;;;;;;;;;;5050182;28;20045;-71
2023/01/14 06:40:28;;;;;;;28.35;6.13;;;;;;;;;;5070378;28;20120;-71
2023/01/14 06:42:54;;;;;;;39.10;6.68;;;;;;;;;;5042419;28;20041;-71
2023/01/14 06:45:22;;;;;;;34.08;6.95;;;;;;;;;;5071749;28;20068;-71
2023/01/14 06:47:48;;;;;;;24.20;5.97;;;;;;;;;;5072072;28;20047;-71
2023/01/14 06:50:17;;;;;;;27.17;6.18;;;;;;;;;;5070268;28;20124;-71
2023/01/14 06:52:43;;;;;;;31.90;8.02;;;;;;;;;;5070619;28;20052;-71
2023/01/14 06:55:09;;;;;;;33.40;6.72;;;;;;;;;;5070398;28;20067;-71
2023/01/14 06:57:35;;;;;;;34.42;6.15;;;;;;;;;;5053976;28;20051;-71
2023/01/14 07:00:01;;;;;;;27.48;5.38;;;;;;;;;;5070083;28;20048;-71
2023/01/14 07:02:27;;;;;;;26.50;5.78;;;;;;;;;;5070514;28;20153;-72
2023/01/14 07:04:53;;;;;;;28.67;6.20;;;;;;;;;;5070515;28;20044;-71
2023/01/14 07:07:19;;;;;;;24.40;4.93;;;;;;;;;;5070034;28;20056;-71
2023/01/14 07:09:45;;;;;;;33.08;4.88;;;;;;;;;;5070733;28;20389;-72
2023/01/14 07:12:12;;;;;;;29.75;5.20;;;;;;;;;;5069938;28;20040;-71
2023/01/14 07:14:38;;;;;;;34.65;6.35;;;;;;;;;;5054445;28;20044;-72
2023/01/14 07:17:04;;;;;;;29.88;4.10;;;;;;;;;;5069980;28;20036;-72
2023/01/14 07:19:30;;;;;;;29.63;5.00;;;;;;;;;;5070262;28;20044;-71
2023/01/14 07:21:56;;;;;;;26.23;4.45;;;;;;;;;;5070306;28;20041;-71
2023/01/14 07:24:22;;;;;;;28.52;5.03;;;;;;;;;;5069808;28;20051;-71
2023/01/14 07:26:48;;;;;;;29.55;4.28;;;;;;;;;;5070288;28;20052;-71
2023/01/14 07:29:14;;;;;;;28.80;4.30;;;;;;;;;;5069991;28;20537;-72
2023/01/14 07:31:41;;;;;;;30.23;4.70;;;;;;;;;;5054117;28;20044;-71
2023/01/14 07:34:07;;;;;;;23.15;4.22;;;;;;;;;;5064232;28;20041;-72
2023/01/14 07:36:33;;;;;;;25.00;3.92;;;;;;;;;;5072411;28;20040;-70
2023/01/14 07:38:59;;;;;;;30.25;4.65;;;;;;;;;;5057266;28;20044;-70
2023/01/14 07:41:25;;;;;;;30.50;5.10;;;;;;;;;;5073241;28;20059;-70
2023/01/14 07:43:52;;;;;;;26.55;3.63;;;;;;;;;;5058962;28;20037;-70
2023/01/14 07:46:18;;;;;;;31.90;3.83;;;;;;;;;;5053413;28;20037;-70
2023/01/14 07:48:44;;;;;;;27.63;3.78;;;;;;;;;;5054074;28;20037;-70
2023/01/14 07:51:11;;;;;;;22.15;3.53;;;;;;;;;;5053228;28;20082;-70
2023/01/14 07:53:38;;;;;;;29.90;4.28;;;;;;;;;;5053651;28;20047;-70
2023/01/14 07:56:04;;;;;;;21.65;3.88;;;;;;;;;;5053504;28;20044;-70
2023/01/14 07:58:31;;;;;;;28.50;4.97;;;;;;;;;;5054401;28;20045;-70
2023/01/14 08:00:57;;;;;;;31.17;4.43;;;;;;;;;;5053190;28;20052;-71
2023/01/14 08:03:25;;;;;;;28.45;4.30;;;;;;;;;;5036479;28;20240;-71
2023/01/14 08:05:52;;;;;;;30.55;4.32;;;;;;;;;;5053062;28;20059;-71
2023/01/14 08:08:18;;;;;;;25.83;4.15;;;;;;;;;;5053395;28;20041;-72
2023/01/14 08:10:44;;;;;;;23.30;4.15;;;;;;;;;;5053323;28;20041;-71
2023/01/14 08:13:14;;;;;;;27.58;4.28;;;;;;;;;;5036002;28;20068;-72
2023/01/14 08:15:40;;;;;;;22.67;4.10;;;;;;;;;;5053124;28;20041;-72
2023/01/14 08:18:06;;;;;;;28.83;4.50;;;;;;;;;;5036287;28;20032;-73
2023/01/14 08:20:35;;;;;;;29.27;3.90;;;;;;;;;;5053856;28;20497;-72
2023/01/14 08:23:01;;;;;;;22.08;3.80;;;;;;;;;;5036136;28;20098;-72
2023/01/14 08:25:28;;;;;;;23.55;3.65;;;;;;;;;;5065169;28;20037;-72
2023/01/14 08:27:54;;;;;;;29.23;4.00;;;;;;;;;;5073051;28;20041;-72
2023/01/14 08:30:21;;;;;;;29.13;3.65;;;;;;;;;;5072412;28;20036;-72
2023/01/14 08:32:50;;;;;;;23.63;3.58;;;;;;;;;;5072953;28;20070;-70
2023/01/14 08:35:16;;;;;;;27.13;3.75;;;;;;;;;;5061572;28;20047;-72
2023/01/14 08:37:42;;;;;;;27.35;4.05;;;;;;;;;;5056371;28;20553;-72
2023/01/14 08:40:09;;;;;;;26.92;3.58;;;;;;;;;;5072817;28;20044;-71
2023/01/14 08:42:35;;;;;;;20.05;3.63;;;;;;;;;;5049801;28;20528;-71
2023/01/14 08:45:04;;;;;;;25.98;3.67;;;;;;;;;;5068909;28;20444;-72
2023/01/14 08:47:30;;;;;;;27.92;3.88;;;;;;;;;;5072197;28;20051;-72
2023/01/14 08:49:57;;;;;;;22.63;3.60;;;;;;;;;;5072198;28;20036;-71
2023/01/14 08:52:23;;;;;;;20.25;3.63;;;;;;;;;;5073717;28;20452;-71
2023/01/14 08:54:49;;;;;;;20.50;3.35;;;;;;;;;;5072821;28;20490;-72
2023/01/14 08:57:15;;;;;;;16.65;3.10;;;;;;;;;;5072292;28;20424;-72
2023/01/14 08:59:41;;;;;;;18.13;3.83;;;;;;;;;;5072290;28;20119;-72
2023/01/14 09:02:11;;;;;;;31.10;4.13;;;;;;;;;;5072545;28;20041;-72
2023/01/14 09:04:37;;;;;;;24.95;3.67;;;;;;;;;;5072007;28;20044;-72
2023/01/14 09:18:03;;;;;;;25.27;4.18;;;;;;;;;;5072359;28;20401;-72
2023/01/14 09:20:31;;;;;;;19.42;3.55;;;;;;;;;;5055049;28;20042;-72
2023/01/14 09:22:57;;;;;;;18.77;3.50;;;;;;;;;;5073905;28;20107;-72
2023/01/14 09:25:23;;;;;;;22.52;3.50;;;;;;;;;;5073157;28;20046;-72
2023/01/14 09:27:49;;;;;;;22.80;3.60;;;;;;;;;;5072098;28;20131;-72
2023/01/14 09:30:16;;;;;;;24.50;3.75;;;;;;;;;;5071692;28;20048;-72
2023/01/14 09:32:42;;;;;;;20.70;3.50;;;;;;;;;;5071364;28;20047;-73
2023/01/14 09:35:08;;;;;;;17.90;3.13;;;;;;;;;;5064922;28;20040;-72
2023/01/14 09:37:34;;;;;;;14.80;2.92;;;;;;;;;;5071251;28;20089;-72
2023/01/14 09:40:01;;;;;;;16.35;3.67;;;;;;;;;;5071582;28;20064;-72
2023/01/14 09:42:40;;;;;;;18.33;3.38;;;;;;;;;;5066778;28;20413;-72
2023/01/14 09:45:12;;;;;;;14.15;3.40;;;;;;;;;;5051677;28;20052;-72
2023/01/14 09:47:38;;;;;;;15.82;3.22;;;;;;;;;;5051328;28;20497;-72
2023/01/14 09:50:06;;;;;;;15.05;3.63;;;;;;;;;;5051729;28;20390;-72
2023/01/14 09:52:43;;;;;;;17.73;3.60;;;;;;;;;;5067840;28;20478;-72
2023/01/14 09:55:23;;;;;;;10.15;3.72;;;;;;;;;;5051481;28;20049;-72
2023/01/14 09:58:07;;;;;;;12.30;3.47;;;;;;;;;;5052623;28;20044;-73
2023/01/14 10:00:49;;;;;;;12.02;3.55;;;;;;;;;;5051032;28;20386;-73
2023/01/14 10:03:22;;;;;;;12.63;2.92;;;;;;;;;;5034669;28;20037;-73
2023/01/14 10:06:00;;;;;;;10.45;3.22;;;;;;;;;;5051191;28;20060;-73
2023/01/14 10:08:28;;;;;;;11.40;2.97;;;;;;;;;;5051004;28;20041;-72
2023/01/14 10:10:54;;;;;;;13.82;3.42;;;;;;;;;;5051451;28;20040;-72
2023/01/14 10:13:22;;;;;;;8.80;3.33;;;;;;;;;;5052363;28;20086;-73
2023/01/14 10:16:21;;;;;;;8.98;3.25;;;;;;;;;;5051009;28;20051;-72
2023/01/14 10:19:02;;;;;;;13.27;3.72;;;;;;;;;;5061978;28;20052;-72
2023/01/14 10:21:39;;;;;;;8.52;3.20;;;;;;;;;;5051530;28;20159;-73
2023/01/14 10:24:05;;;;;;;11.55;3.13;;;;;;;;;;5034341;28;20091;-73
2023/01/14 10:26:32;;;;;;;9.40;3.60;;;;;;;;;;5050336;28;20045;-73
2023/01/14 10:29:00;;;;;;;9.05;3.53;;;;;;;;;;5051067;28;20047;-73
2023/01/14 10:31:28;;;;;;;10.07;3.13;;;;;;;;;;5050052;28;20045;-73
2023/01/14 10:33:54;;;;;;;11.15;3.80;;;;;;;;;;5050927;28;20116;-73
2023/01/14 10:36:23;;;;;;;7.10;2.80;;;;;;;;;;5033997;28;20130;-73
2023/01/14 10:38:49;;;;;;;8.68;3.05;;;;;;;;;;5050576;28;20051;-73
2023/01/14 10:41:16;;;;;;;9.32;3.80;;;;;;;;;;5050877;28;20037;-72
2023/01/14 10:43:46;;;;;;;7.97;3.00;;;;;;;;;;5033813;28;20387;-73
2023/01/14 10:46:17;;;;;;;7.70;3.83;;;;;;;;;;5050660;28;20029;-73
2023/01/14 10:48:48;;;;;;;12.73;5.90;;;;;;;;;;5033581;28;20040;-73
2023/01/14 10:51:37;;;;;;;9.27;5.22;;;;;;;;;;5034118;28;20041;-73
2023/01/14 10:54:10;;;;;;;8.35;2.67;;;;;;;;;;5052060;28;20048;-73
2023/01/14 10:56:36;;;;;;;6.65;2.30;;;;;;;;;;5050212;28;20106;-73
2023/01/14 10:59:02;;;;;;;10.85;2.83;;;;;;;;;;5050264;28;20045;-73
2023/01/14 11:01:28;;;;;;;9.20;3.30;;;;;;;;;;5050116;28;20048;-73
2023/01/14 11:03:54;;;;;;;7.75;3.03;;;;;;;;;;5033799;28;20112;-71
2023/01/14 11:06:20;;;;;;;7.93;2.88;;;;;;;;;;5051407;28;20053;-73
2023/01/14 11:08:50;;;;;;;10.27;3.17;;;;;;;;;;5033639;28;20555;-73
2023/01/14 11:11:22;;;;;;;8.88;3.00;;;;;;;;;;5050870;28;20121;-71
2023/01/14 11:13:50;;;;;;;9.68;4.57;;;;;;;;;;5054062;28;20062;-72
2023/01/14 11:16:25;;;;;;;8.98;3.92;;;;;;;;;;5054104;28;20041;-72
2023/01/14 11:18:55;;;;;;;7.57;3.70;;;;;;;;;;5053897;28;20068;-72
2023/01/14 11:21:22;;;;;;;10.07;3.75;;;;;;;;;;5054187;28;20155;-72
2023/01/14 11:24:02;;;;;;;8.38;3.17;;;;;;;;;;5053980;28;20147;-72
2023/01/14 11:26:33;;;;;;;8.00;3.10;;;;;;;;;;5054260;28;20379;-72
2023/01/14 11:29:06;;;;;;;7.05;2.75;;;;;;;;;;5054217;28;20037;-72
2023/01/14 11:31:33;;;;;;;5.90;2.70;;;;;;;;;;5053422;28;20080;-72
2023/01/14 11:34:00;;;;;;;6.70;2.50;;;;;;;;;;5054484;28;20398;-73
2023/01/14 11:36:27;;;;;;;8.95;2.80;;;;;;;;;;5037338;28;20045;-72
2023/01/14 11:38:58;;;;;;;6.82;2.80;;;;;;;;;;5053507;28;20049;-72
2023/01/14 11:41:35;;;;;;;7.80;2.40;;;;;;;;;;5054078;28;20048;-73
2023/01/14 11:44:23;;;;;;;10.02;2.70;;;;;;;;;;5052069;28;20490;-72
2023/01/14 11:47:04;;;;;;;6.22;2.28;;;;;;;;;;5053527;28;20494;-73
2023/01/14 11:49:30;;;;;;;6.40;2.78;;;;;;;;;;5037365;28;20375;-72
2023/01/14 11:52:01;;;;;;;7.45;2.15;;;;;;;;;;5053322;28;20060;-73
2023/01/14 11:54:34;;;;;;;8.32;2.42;;;;;;;;;;5053591;28;20041;-72
2023/01/14 11:57:00;;;;;;;6.22;2.67;;;;;;;;;;5054292;28;20124;-72
2023/01/14 11:59:31;;;;;;;7.85;2.53;;;;;;;;;;5053699;28;20041;-72
2023/01/14 12:02:03;;;;;;;6.05;2.35;;;;;;;;;;5054375;28;20044;-72
2023/01/14 12:04:40;;;;;;;6.00;2.00;;;;;;;;;;5053612;28;20116;-72
2023/01/14 12:07:07;;;;;;;7.18;2.10;;;;;;;;;;5053530;28;20068;-72
2023/01/14 12:09:41;;;;;;;3.70;1.75;;;;;;;;;;5055246;28;20076;-71
2023/01/14 12:12:26;;;;;;;7.20;1.98;;;;;;;;;;5073467;28;20081;-72
2023/01/14 12:17:49;;;;;;;4.28;1.83;;;;;;;;;;5072663;28;20041;-72
2023/01/14 12:20:18;;;;;;;4.43;1.55;;;;;;;;;;5073301;28;20055;-72
2023/01/14 12:22:47;;;;;;;4.88;1.80;;;;;;;;;;5056045;28;20055;-73
2023/01/14 12:25:18;;;;;;;4.20;1.63;;;;;;;;;;5073184;28;20044;-73
2023/01/14 12:27:53;;;;;;;4.40;1.70;;;;;;;;;;5072610;28;20036;-73
2023/01/14 12:30:23;;;;;;;6.50;1.63;;;;;;;;;;5073187;28;20493;-73
2023/01/14 12:32:54;;;;;;;5.05;1.70;;;;;;;;;;5056002;28;20085;-73
2023/01/14 12:35:21;;;;;;;5.65;2.10;;;;;;;;;;5072637;28;20044;-73
2023/01/14 12:37:57;;;;;;;4.00;1.60;;;;;;;;;;5055808;28;20093;-73
2023/01/14 12:46:00;;;;;;;3.90;1.40;;;;;;;;;;5052096;28;20079;-71
2023/01/14 12:48:27;;;;;;;4.38;1.55;;;;;;;;;;5053813;28;20033;-71
2023/01/14 12:50:53;;;;;;;6.25;1.50;;;;;;;;;;5052340;28;20033;-72
2023/01/14 12:53:22;;;;;;;3.38;1.50;;;;;;;;;;5052728;28;20041;-72
2023/01/14 12:55:49;;;;;;;2.92;1.30;;;;;;;;;;5052087;28;20121;-72
2023/01/14 12:58:18;;;;;;;3.67;1.50;;;;;;;;;;5052449;28;20064;-72
2023/01/14 13:00:49;;;;;;;4.40;1.60;;;;;;;;;;5051832;28;20052;-72
2023/01/14 13:03:19;;;;;;;2.80;1.60;;;;;;;;;;5052337;28;20052;-72
2023/01/14 13:05:45;;;;;;;3.92;1.40;;;;;;;;;;5051306;28;20088;-72
2023/01/14 13:08:20;;;;;;;4.35;1.50;;;;;;;;;;5035668;28;20041;-72
2023/01/14 13:10:56;;;;;;;3.70;1.48;;;;;;;;;;5053049;28;20401;-73
2023/01/14 13:13:23;;;;;;;5.40;1.60;;;;;;;;;;5040041;28;20414;-72
2023/01/14 13:15:50;;;;;;;4.78;1.45;;;;;;;;;;5051654;28;20040;-72
2023/01/14 13:18:34;;;;;;;3.00;1.60;;;;;;;;;;5052235;28;20064;-72
2023/01/14 13:21:01;;;;;;;4.40;1.30;;;;;;;;;;5051586;28;20055;-72
2023/01/14 13:23:36;;;;;;;3.92;1.67;;;;;;;;;;5071644;28;20037;-72
2023/01/14 13:26:03;;;;;;;3.80;1.80;;;;;;;;;;5051453;28;20045;-72
2023/01/14 13:28:29;;;;;;;2.83;1.58;;;;;;;;;;5051889;28;20112;-72
2023/01/14 13:30:58;;;;;;;3.92;1.77;;;;;;;;;;5051644;28;20128;-72
2023/01/14 13:33:24;;;;;;;3.22;1.80;;;;;;;;;;5051503;28;20041;-72
2023/01/14 13:36:09;;;;;;;3.03;1.70;;;;;;;;;;5050838;28;20080;-73
2023/01/14 13:38:39;;;;;;;3.15;1.88;;;;;;;;;;5051449;28;20049;-72
2023/01/14 13:41:09;;;;;;;4.35;1.92;;;;;;;;;;5051470;28;20122;-73
2023/01/14 13:43:39;;;;;;;3.60;2.17;;;;;;;;;;5051716;28;20071;-72
2023/01/14 13:46:07;;;;;;;5.03;1.80;;;;;;;;;;5039525;28;20132;-73
2023/01/14 13:48:38;;;;;;;3.58;1.63;;;;;;;;;;5051397;28;20052;-73
2023/01/14 13:51:16;;;;;;;2.55;1.52;;;;;;;;;;5034365;28;20039;-72
2023/01/14 13:53:49;;;;;;;3.60;1.83;;;;;;;;;;5051358;28;20041;-72
2023/01/14 13:56:20;;;;;;;3.05;1.50;;;;;;;;;;5051482;28;20048;-72
2023/01/14 13:58:48;;;;;;;2.85;1.70;;;;;;;;;;5051669;28;20520;-72
2023/01/14 14:01:24;;;;;;;3.38;1.70;;;;;;;;;;5051438;28;20367;-73
2023/01/14 14:03:55;;;;;;;2.58;1.63;;;;;;;;;;5050848;28;20052;-72
2023/01/14 14:06:21;;;;;;;2.45;1.48;;;;;;;;;;5050577;28;20051;-73
2023/01/14 14:09:02;;;;;;;2.45;1.35;;;;;;;;;;5051424;28;20041;-72
2023/01/14 14:11:30;;;;;;;2.53;1.40;;;;;;;;;;5051193;28;20040;-72
2023/01/14 14:14:07;;;;;;;3.50;1.88;;;;;;;;;;5050678;28;20044;-72
2023/01/14 14:16:35;;;;;;;2.70;1.55;;;;;;;;;;5050871;28;20081;-72
2023/01/14 14:19:04;;;;;;;2.30;1.60;;;;;;;;;;5050663;28;20175;-73
2023/01/14 14:21:35;;;;;;;3.67;1.58;;;;;;;;;;5052206;28;20041;-72
2023/01/14 14:24:04;;;;;;;3.08;1.70;;;;;;;;;;5050656;28;20505;-73
2023/01/14 14:26:30;;;;;;;2.50;1.60;;;;;;;;;;5051015;28;20043;-72
2023/01/14 14:28:58;;;;;;;2.40;1.60;;;;;;;;;;5034242;28;20182;-73
2023/01/14 14:31:29;;;;;;;2.40;1.58;;;;;;;;;;5051150;28;20401;-72
2023/01/14 14:34:02;;;;;;;2.35;1.55;;;;;;;;;;5034263;28;20551;-73
2023/01/14 14:36:28;;;;;;;3.17;1.60;;;;;;;;;;5050740;28;20041;-72
2023/01/14 14:38:55;;;;;;;2.83;1.70;;;;;;;;;;5051044;28;20052;-73
2023/01/14 14:41:30;;;;;;;3.58;1.80;;;;;;;;;;5034532;28;20444;-73
2023/01/14 14:43:59;;;;;;;2.50;1.67;;;;;;;;;;5050795;28;20128;-73
2023/01/14 14:46:25;;;;;;;3.90;1.75;;;;;;;;;;5051677;28;20513;-73
2023/01/14 14:48:52;;;;;;;3.45;1.77;;;;;;;;;;5038560;28;20037;-73
2023/01/14 14:51:29;;;;;;;2.70;1.85;;;;;;;;;;5055593;28;20039;-73
2023/01/14 14:53:56;;;;;;;3.10;1.83;;;;;;;;;;5054970;28;20570;-71
2023/01/14 14:56:23;;;;;;;3.05;1.85;;;;;;;;;;5038072;28;20036;-71
2023/01/14 14:58:51;;;;;;;4.60;2.08;;;;;;;;;;5056099;28;20087;-71
2023/01/14 15:01:22;;;;;;;3.22;2.00;;;;;;;;;;5054200;28;20048;-71
2023/01/14 15:03:51;;;;;;;3.13;2.00;;;;;;;;;;5054567;28;20055;-71
2023/01/14 15:06:18;;;;;;;3.53;2.10;;;;;;;;;;5053398;28;20083;-71
2023/01/14 15:08:53;;;;;;;3.40;2.30;;;;;;;;;;5054526;28;20045;-71
2023/01/14 15:11:24;;;;;;;3.05;2.25;;;;;;;;;;5054111;28;20036;-71
2023/01/14 15:13:50;;;;;;;3.47;2.42;;;;;;;;;;5056058;28;20045;-71
2023/01/14 15:16:18;;;;;;;3.15;2.40;;;;;;;;;;5053845;28;20045;-72
2023/01/14 15:18:50;;;;;;;3.90;2.28;;;;;;;;;;5054330;28;20041;-72
2023/01/14 15:21:19;;;;;;;3.10;2.38;;;;;;;;;;5053644;28;20056;-72